Time;durP1;ratioP1;P1;durP2;ratioP2;P2;SDS_P1;SDS_P2;PMS_P1;PMS_P2;Temp;Humidity;BMP_temperature;BMP_pressure;BME280_temperature;BME280_humidity;BME280_pressure;Samples;Min_cycle;Max_cycle;Signal;HPM_P1;HPM_P2
2022/04/24 00:02:23;;;;;;;14.60;10.23;;;12.90;66.80;;;;;;4993890;28;21026;-74
2022/04/24 00:04:53;;;;;;;16.83;10.80;;;12.90;66.80;;;;;;4995456;28;20560;-76
2022/04/24 00:07:21;;;;;;;16.20;9.57;;;12.90;66.80;;;;;;4996497;28;20479;-75
2022/04/24 00:09:49;;;;;;;12.17;9.57;;;12.80;66.70;;;;;;4994066;28;20835;-74
2022/04/24 00:12:17;;;;;;;13.60;9.87;;;12.80;66.70;;;;;;4995412;28;20534;-76
2022/04/24 00:14:47;;;;;;;11.87;9.27;;;12.80;66.70;;;;;;4995808;28;20495;-75
2022/04/24 00:17:16;;;;;;;12.80;10.37;;;12.80;66.70;;;;;;5000902;28;20531;-76
2022/04/24 00:19:44;;;;;;;11.50;8.93;;;12.80;66.70;;;;;;4999915;28;20476;-75
2022/04/24 00:22:13;;;;;;;15.50;9.90;;;12.80;66.70;;;;;;4995632;28;20937;-77
2022/04/24 00:24:41;;;;;;;12.80;9.97;;;12.80;66.70;;;;;;4994385;28;20493;-75
2022/04/24 00:27:10;;;;;;;12.67;9.47;;;12.80;66.70;;;;;;4999715;28;20561;-76
2022/04/24 00:29:38;;;;;;;14.37;9.10;;;12.80;66.60;;;;;;5005672;28;20476;-75
2022/04/24 00:32:07;;;;;;;13.73;9.60;;;12.80;66.40;;;;;;5000809;28;20493;-76
2022/04/24 00:34:35;;;;;;;12.73;8.93;;;12.80;66.40;;;;;;4998270;28;20476;-75
2022/04/24 00:37:04;;;;;;;11.53;8.73;;;12.80;66.20;;;;;;5003360;28;20554;-76
2022/04/24 00:39:34;;;;;;;13.23;7.93;;;12.80;66.20;;;;;;4999161;28;20961;-75
2022/04/24 00:42:02;;;;;;;11.97;9.03;;;12.80;66.20;;;;;;4993961;28;20470;-76
2022/04/24 00:44:33;;;;;;;12.00;8.77;;;12.80;66.20;;;;;;4996239;28;20472;-75
2022/04/24 00:47:17;;;;;;;11.27;7.73;;;12.80;66.10;;;;;;4999488;28;21402;-75
2022/04/24 00:49:46;;;;;;;10.87;7.57;;;12.80;66.00;;;;;;4998849;28;21079;-75
2022/04/24 00:52:15;;;;;;;10.27;6.80;;;12.80;65.90;;;;;;4996227;28;20473;-75
2022/04/24 00:54:44;;;;;;;10.70;7.77;;;12.80;65.70;;;;;;4999445;28;20484;-76
2022/04/24 00:57:13;;;;;;;12.20;7.50;;;12.70;65.70;;;;;;4998491;28;21002;-75
2022/04/24 00:59:41;;;;;;;13.37;7.67;;;12.70;65.70;;;;;;5000651;28;20462;-75
2022/04/24 01:02:10;;;;;;;17.80;12.23;;;12.80;65.80;;;;;;5001231;28;20485;-75
2022/04/24 01:04:39;;;;;;;20.47;12.77;;;12.80;65.70;;;;;;5000027;28;20563;-76
2022/04/24 01:07:08;;;;;;;19.00;13.10;;;12.80;65.50;;;;;;4999806;28;20932;-75
2022/04/24 01:09:36;;;;;;;16.63;11.00;;;12.80;65.30;;;;;;4999925;28;20460;-75
2022/04/24 01:12:07;;;;;;;13.43;9.10;;;12.80;65.20;;;;;;4998951;28;20502;-76
2022/04/24 01:14:36;;;;;;;13.60;8.70;;;12.70;65.00;;;;;;4995026;28;20488;-75
2022/04/24 01:17:06;;;;;;;9.87;6.83;;;12.70;64.90;;;;;;4998082;28;20481;-75
2022/04/24 01:19:34;;;;;;;11.00;7.40;;;12.60;64.90;;;;;;4998618;28;20465;-75
2022/04/24 01:22:04;;;;;;;9.90;7.30;;;12.60;64.90;;;;;;5004220;28;20464;-75
2022/04/24 01:24:32;;;;;;;9.47;6.90;;;12.60;65.00;;;;;;4999874;28;20577;-75
2022/04/24 01:27:00;;;;;;;11.43;7.93;;;12.50;65.00;;;;;;4997978;28;20465;-75
2022/04/24 01:29:28;;;;;;;11.73;6.90;;;12.50;65.00;;;;;;5000978;28;20456;-77
2022/04/24 01:31:56;;;;;;;12.87;7.20;;;12.60;65.00;;;;;;5001994;28;20870;-77
2022/04/24 01:34:24;;;;;;;11.33;7.30;;;12.50;64.80;;;;;;5004634;28;20546;-76
2022/04/24 01:36:52;;;;;;;11.87;8.03;;;12.50;64.90;;;;;;4998586;28;21268;-78
2022/04/24 01:39:22;;;;;;;11.37;7.70;;;12.60;64.90;;;;;;4998681;28;20475;-76
2022/04/24 01:41:51;;;;;;;10.80;7.50;;;12.60;64.80;;;;;;5002899;28;20469;-74
2022/04/24 01:44:19;;;;;;;17.50;10.90;;;12.70;64.70;;;;;;5002362;28;21035;-75
2022/04/24 01:46:47;;;;;;;11.30;7.33;;;12.70;64.60;;;;;;4996717;28;20491;-75
2022/04/24 01:49:15;;;;;;;12.67;8.27;;;12.70;64.30;;;;;;4995751;28;20469;-75
2022/04/24 01:51:44;;;;;;;9.90;6.90;;;12.60;64.30;;;;;;4994313;28;20462;-75
2022/04/24 01:54:12;;;;;;;9.97;6.70;;;12.60;64.50;;;;;;4995098;28;20464;-75
2022/04/24 01:56:41;;;;;;;9.93;7.40;;;12.60;64.40;;;;;;4997052;28;20477;-75
2022/04/24 01:59:09;;;;;;;10.73;7.07;;;12.60;64.30;;;;;;5001487;28;20506;-77
2022/04/24 02:01:37;;;;;;;9.50;6.40;;;12.60;64.30;;;;;;4999676;28;20566;-76
2022/04/24 02:04:06;;;;;;;10.57;6.50;;;12.70;64.30;;;;;;4998777;28;20970;-77
2022/04/24 02:06:34;;;;;;;9.73;6.43;;;12.70;64.30;;;;;;4996887;28;20477;-77
2022/04/24 02:09:02;;;;;;;10.50;7.40;;;12.70;64.20;;;;;;4998582;28;20468;-77
2022/04/24 02:11:33;;;;;;;12.93;6.63;;;12.70;64.20;;;;;;5002650;28;20462;-77
2022/04/24 02:14:03;;;;;;;9.93;6.30;;;12.70;64.20;;;;;;5000843;28;20458;-78
2022/04/24 02:16:31;;;;;;;13.20;7.40;;;12.70;64.20;;;;;;4998204;28;20488;-77
2022/04/24 02:18:59;;;;;;;9.90;7.47;;;12.70;64.10;;;;;;4999344;28;20470;-77
2022/04/24 02:21:28;;;;;;;10.10;7.37;;;12.70;64.10;;;;;;4996525;28;20520;-76
2022/04/24 02:23:56;;;;;;;10.70;7.00;;;12.70;64.20;;;;;;4997383;28;20448;-77
2022/04/24 02:26:24;;;;;;;12.50;7.90;;;12.60;64.20;;;;;;4998199;28;20485;-76
2022/04/24 02:28:52;;;;;;;10.10;6.80;;;12.60;64.20;;;;;;4997261;28;20476;-76
2022/04/24 02:31:21;;;;;;;11.07;8.17;;;12.60;64.30;;;;;;5002208;28;20475;-76
2022/04/24 02:33:50;;;;;;;11.77;8.27;;;12.50;64.30;;;;;;5000074;28;20540;-76
2022/04/24 02:36:18;;;;;;;9.80;7.13;;;12.50;64.30;;;;;;4997235;28;20483;-77
2022/04/24 02:38:46;;;;;;;11.03;7.43;;;12.40;64.30;;;;;;4996649;28;20469;-76
2022/04/24 02:41:13;;;;;;;8.50;6.07;;;12.40;64.30;;;;;;4996084;28;20995;-76
2022/04/24 02:43:42;;;;;;;9.20;6.00;;;12.40;64.20;;;;;;4997822;28;20460;-77
2022/04/24 02:46:09;;;;;;;8.97;6.50;;;12.40;64.00;;;;;;4994594;28;21044;-76
2022/04/24 02:48:39;;;;;;;9.27;5.80;;;12.30;63.80;;;;;;4993592;28;20569;-76
2022/04/24 02:51:07;;;;;;;7.97;5.00;;;12.30;63.80;;;;;;4997740;28;20546;-76
2022/04/24 02:53:38;;;;;;;9.00;6.20;;;12.20;63.70;;;;;;4994728;28;20461;-77
2022/04/24 02:56:07;;;;;;;9.90;6.07;;;12.10;63.60;;;;;;4994321;28;20493;-76
2022/04/24 02:58:38;;;;;;;10.07;6.47;;;12.10;63.50;;;;;;4996667;28;20460;-75
2022/04/24 03:01:05;;;;;;;9.80;6.10;;;12.00;63.50;;;;;;4994721;28;20492;-76
2022/04/24 03:03:33;;;;;;;8.20;6.07;;;12.00;63.60;;;;;;4999321;28;20465;-76
2022/04/24 03:06:03;;;;;;;9.57;6.20;;;11.90;63.60;;;;;;4995135;28;20478;-77
2022/04/24 03:08:32;;;;;;;11.57;6.10;;;11.90;63.70;;;;;;4996421;28;20464;-78
2022/04/24 03:10:59;;;;;;;8.77;6.10;;;11.90;63.70;;;;;;4993966;28;20472;-77
2022/04/24 03:13:27;;;;;;;9.97;5.90;;;11.90;63.70;;;;;;5000226;28;20464;-75
2022/04/24 03:15:55;;;;;;;8.83;5.70;;;11.90;63.80;;;;;;4996450;28;20890;-75
2022/04/24 03:18:23;;;;;;;10.80;6.43;;;11.90;63.60;;;;;;4996281;28;20599;-75
2022/04/24 03:20:51;;;;;;;12.90;5.90;;;11.80;63.70;;;;;;4996717;28;20457;-76
2022/04/24 03:23:20;;;;;;;9.07;6.03;;;11.80;63.70;;;;;;4996648;28;20997;-76
2022/04/24 03:25:50;;;;;;;8.90;6.00;;;11.80;63.80;;;;;;4999133;28;20620;-75
2022/04/24 03:28:18;;;;;;;7.63;5.23;;;11.80;63.90;;;;;;4996605;28;20441;-75
2022/04/24 03:30:46;;;;;;;10.67;6.90;;;11.90;63.90;;;;;;4999368;28;20472;-75
2022/04/24 03:33:13;;;;;;;9.97;6.60;;;11.90;63.90;;;;;;4997090;28;20478;-75
2022/04/24 03:35:41;;;;;;;10.67;6.97;;;11.90;63.90;;;;;;4994923;28;20480;-75
2022/04/24 03:38:09;;;;;;;10.30;7.50;;;11.90;64.00;;;;;;4997939;28;20531;-78
2022/04/24 03:40:39;;;;;;;10.07;6.70;;;11.90;64.00;;;;;;4995948;28;20472;-78
2022/04/24 03:43:07;;;;;;;10.90;6.50;;;12.00;64.00;;;;;;4995138;28;20465;-78
2022/04/24 03:45:34;;;;;;;10.00;5.90;;;12.00;64.10;;;;;;4992363;28;20469;-77
2022/04/24 03:48:02;;;;;;;10.20;6.57;;;12.10;64.10;;;;;;5000008;28;20465;-76
2022/04/24 03:50:30;;;;;;;10.03;6.77;;;12.20;64.10;;;;;;4995981;28;20470;-77
2022/04/24 03:52:58;;;;;;;9.00;6.00;;;12.30;64.00;;;;;;4993005;28;20493;-76
2022/04/24 03:55:29;;;;;;;9.17;6.23;;;12.40;63.80;;;;;;4995416;28;20495;-77
2022/04/24 03:57:58;;;;;;;10.70;7.67;;;12.40;63.80;;;;;;4994963;28;20504;-76
2022/04/24 04:00:26;;;;;;;11.40;8.27;;;12.40;63.60;;;;;;5000195;28;21203;-77
2022/04/24 04:02:53;;;;;;;12.73;7.73;;;12.30;63.70;;;;;;5000935;28;20470;-76
2022/04/24 04:05:22;;;;;;;11.33;7.23;;;12.30;63.80;;;;;;5002560;28;20496;-76
2022/04/24 04:07:50;;;;;;;10.27;7.40;;;12.30;63.80;;;;;;4999957;28;20464;-76
2022/04/24 04:10:17;;;;;;;9.47;7.20;;;12.30;63.80;;;;;;5001583;28;20468;-76
2022/04/24 04:12:45;;;;;;;12.63;7.90;;;12.30;63.90;;;;;;5001974;28;20457;-77
2022/04/24 04:15:20;;;;;;;11.30;7.70;;;12.30;63.90;;;;;;5001652;28;20522;-76
2022/04/24 04:17:48;;;;;;;10.23;7.17;;;12.30;64.10;;;;;;5002830;28;20872;-76
2022/04/24 04:20:16;;;;;;;11.17;7.70;;;12.30;64.10;;;;;;5004279;28;20468;-76
2022/04/24 04:22:52;;;;;;;10.30;7.77;;;12.30;64.20;;;;;;5016181;28;20849;-77
2022/04/24 04:25:21;;;;;;;10.90;8.43;;;12.30;64.30;;;;;;5003599;28;20592;-76
2022/04/24 04:27:49;;;;;;;10.73;7.57;;;12.30;64.40;;;;;;4998616;28;20454;-76
2022/04/24 04:30:18;;;;;;;11.47;8.37;;;12.30;64.40;;;;;;5001099;28;21011;-76
2022/04/24 04:32:47;;;;;;;11.03;8.13;;;12.40;64.50;;;;;;5001278;28;20522;-77
2022/04/24 04:35:15;;;;;;;13.40;8.70;;;12.40;64.40;;;;;;5000178;28;20489;-75
2022/04/24 04:37:44;;;;;;;11.17;8.90;;;12.40;64.50;;;;;;5003528;28;20480;-77
2022/04/24 04:40:12;;;;;;;10.80;8.60;;;12.30;64.60;;;;;;5004858;28;20843;-77
2022/04/24 04:42:40;;;;;;;13.77;9.03;;;12.30;64.60;;;;;;5005830;28;20456;-74
2022/04/24 04:45:09;;;;;;;17.90;10.00;;;12.30;64.70;;;;;;5004922;28;20488;-76
2022/04/24 04:47:38;;;;;;;14.60;10.77;;;12.20;64.90;;;;;;5003004;28;20984;-75
2022/04/24 04:50:07;;;;;;;13.20;9.87;;;12.20;65.10;;;;;;5010598;28;21116;-75
2022/04/24 04:52:35;;;;;;;16.90;11.60;;;12.20;65.40;;;;;;5005169;28;20492;-75
2022/04/24 04:55:05;;;;;;;14.43;9.77;;;12.20;65.30;;;;;;5002802;28;20482;-75
2022/04/24 04:57:39;;;;;;;14.60;10.90;;;12.20;65.60;;;;;;4998782;28;21217;-77
2022/04/24 05:00:08;;;;;;;12.43;9.13;;;12.20;65.70;;;;;;4998476;28;20460;-77
2022/04/24 05:02:39;;;;;;;14.83;10.53;;;12.20;65.90;;;;;;5002751;28;21041;-77
2022/04/24 05:05:08;;;;;;;15.90;10.80;;;12.20;66.00;;;;;;5002215;28;20511;-76
2022/04/24 05:07:37;;;;;;;13.20;10.43;;;12.10;66.30;;;;;;5004943;28;20514;-76
2022/04/24 05:10:20;;;;;;;16.47;11.53;;;12.10;66.40;;;;;;5007300;28;20460;-75
2022/04/24 05:12:48;;;;;;;28.93;17.17;;;12.10;66.70;;;;;;5007783;28;20489;-75
2022/04/24 05:15:16;;;;;;;28.33;17.40;;;12.10;66.80;;;;;;5006926;28;20494;-75
2022/04/24 05:17:46;;;;;;;28.77;17.17;;;12.20;66.90;;;;;;5001512;28;20487;-75
2022/04/24 05:20:14;;;;;;;36.20;23.50;;;12.20;67.10;;;;;;5002212;28;20464;-76
2022/04/24 05:22:42;;;;;;;29.17;18.87;;;12.20;67.20;;;;;;5001519;28;20468;-76
2022/04/24 05:25:12;;;;;;;18.90;13.50;;;12.20;67.70;;;;;;5001071;28;20512;-75
2022/04/24 05:27:40;;;;;;;25.73;13.60;;;12.10;67.70;;;;;;4998349;28;20462;-75
2022/04/24 05:30:09;;;;;;;18.33;11.90;;;12.10;67.90;;;;;;5000530;28;20462;-75
2022/04/24 05:32:46;;;;;;;18.80;12.97;;;12.10;68.10;;;;;;4996786;28;20461;-76
2022/04/24 05:35:17;;;;;;;16.93;12.03;;;12.20;68.40;;;;;;5000968;28;20504;-76
2022/04/24 05:37:46;;;;;;;17.90;12.97;;;12.20;68.50;;;;;;4998935;28;20518;-75
2022/04/24 05:40:14;;;;;;;15.43;12.23;;;12.20;68.70;;;;;;4999687;28;20535;-75
2022/04/24 05:42:46;;;;;;;15.83;12.50;;;12.20;68.70;;;;;;4997187;28;20469;-76
2022/04/24 05:45:15;;;;;;;18.97;13.80;;;12.20;69.00;;;;;;4999623;28;20508;-76
2022/04/24 05:47:43;;;;;;;19.00;13.27;;;12.20;69.20;;;;;;5003730;28;20485;-76
2022/04/24 05:50:12;;;;;;;18.47;11.97;;;12.20;69.30;;;;;;5016048;28;20578;-75
2022/04/24 05:52:43;;;;;;;22.07;13.33;;;12.20;69.50;;;;;;5007309;28;20469;-76
2022/04/24 05:55:12;;;;;;;17.87;12.50;;;12.20;69.60;;;;;;5009029;28;20488;-76
2022/04/24 05:57:40;;;;;;;17.30;13.90;;;12.20;69.80;;;;;;5004672;28;20462;-76
2022/04/24 06:00:09;;;;;;;17.67;13.00;;;12.20;69.80;;;;;;5002742;28;20476;-76
2022/04/24 06:02:40;;;;;;;17.80;14.00;;;12.30;70.10;;;;;;5012270;28;20541;-76
2022/04/24 06:05:10;;;;;;;19.43;14.30;;;12.30;70.00;;;;;;5003881;28;20607;-76
2022/04/24 06:07:38;;;;;;;21.17;13.93;;;12.30;70.20;;;;;;5002106;28;20916;-76
2022/04/24 06:10:09;;;;;;;20.57;14.17;;;12.20;70.40;;;;;;4998890;28;20460;-76
2022/04/24 06:12:47;;;;;;;21.57;13.23;;;12.20;70.50;;;;;;4999088;28;20473;-76
2022/04/24 06:15:16;;;;;;;19.77;13.80;;;12.30;70.80;;;;;;4994395;28;20485;-76
2022/04/24 06:17:46;;;;;;;17.33;13.87;;;12.30;70.80;;;;;;4998870;28;20485;-77
2022/04/24 06:20:15;;;;;;;18.50;13.60;;;12.30;70.90;;;;;;5001313;28;20507;-76
2022/04/24 06:22:43;;;;;;;21.10;13.80;;;12.30;70.90;;;;;;4998888;28;21004;-76
2022/04/24 06:25:17;;;;;;;18.20;13.80;;;12.30;70.90;;;;;;4999933;28;20484;-76
2022/04/24 06:27:46;;;;;;;15.53;13.30;;;12.30;71.00;;;;;;4997244;28;21170;-76
2022/04/24 06:30:15;;;;;;;17.77;12.77;;;12.30;71.10;;;;;;5000624;28;20460;-76
2022/04/24 06:32:45;;;;;;;16.77;12.93;;;12.30;71.10;;;;;;4998026;28;20501;-78
2022/04/24 06:35:15;;;;;;;19.27;14.57;;;12.30;71.20;;;;;;4995560;28;20481;-76
2022/04/24 06:37:45;;;;;;;19.17;13.07;;;12.40;71.30;;;;;;5001093;28;20519;-76
2022/04/24 06:40:19;;;;;;;21.60;14.03;;;12.40;71.40;;;;;;4996684;28;20499;-75
2022/04/24 06:42:52;;;;;;;19.07;13.90;;;12.40;71.40;;;;;;4995052;28;20469;-75
2022/04/24 06:45:25;;;;;;;19.47;13.80;;;12.40;71.40;;;;;;5011112;28;20560;-75
2022/04/24 06:47:54;;;;;;;19.23;14.00;;;12.40;71.40;;;;;;4997605;28;20461;-75
2022/04/24 06:50:23;;;;;;;19.67;15.07;;;12.40;71.40;;;;;;5002283;28;20456;-75
2022/04/24 06:53:02;;;;;;;18.77;14.20;;;12.40;71.50;;;;;;4995427;28;20830;-75
2022/04/24 06:55:33;;;;;;;20.23;15.53;;;12.40;71.60;;;;;;4998315;28;20571;-75
2022/04/24 06:58:02;;;;;;;19.13;14.57;;;12.40;71.70;;;;;;4992344;28;20468;-76
2022/04/24 07:00:33;;;;;;;18.43;14.03;;;12.40;71.80;;;;;;4988464;28;20479;-77
2022/04/24 07:03:21;;;;;;;23.80;14.97;;;12.40;71.80;;;;;;4991913;28;20464;-76
2022/04/24 07:05:53;;;;;;;17.17;13.47;;;12.40;71.80;;;;;;4999807;28;20531;-75
2022/04/24 07:08:24;;;;;;;27.13;18.20;;;12.40;71.80;;;;;;4996377;28;20469;-74
2022/04/24 07:10:53;;;;;;;23.97;17.47;;;12.40;71.90;;;;;;4999146;28;20530;-75
2022/04/24 07:13:21;;;;;;;21.07;15.27;;;12.40;71.90;;;;;;4993202;28;20461;-77
2022/04/24 07:15:49;;;;;;;19.50;14.63;;;12.40;71.90;;;;;;4995008;28;20495;-75
2022/04/24 07:18:17;;;;;;;23.27;16.20;;;12.40;71.80;;;;;;4999679;28;20469;-76
2022/04/24 07:20:45;;;;;;;19.80;16.10;;;12.40;71.90;;;;;;4997894;28;20468;-77
2022/04/24 07:23:13;;;;;;;18.57;14.33;;;12.40;71.90;;;;;;4992809;28;20476;-77
2022/04/24 07:25:45;;;;;;;21.40;15.70;;;12.40;72.00;;;;;;4997956;28;20488;-77
2022/04/24 07:28:15;;;;;;;19.93;15.50;;;12.40;72.10;;;;;;4998183;28;20567;-75
2022/04/24 07:30:43;;;;;;;17.57;14.70;;;12.40;72.00;;;;;;4995974;28;20481;-75
2022/04/24 07:33:12;;;;;;;26.13;19.23;;;12.40;72.10;;;;;;4990799;28;20461;-75
2022/04/24 07:35:41;;;;;;;33.37;22.30;;;12.40;72.30;;;;;;4992177;28;20486;-75
2022/04/24 07:38:09;;;;;;;37.80;23.83;;;12.30;72.30;;;;;;4995321;28;20462;-75
2022/04/24 07:40:39;;;;;;;34.03;23.10;;;12.30;72.30;;;;;;4994532;28;20477;-75
2022/04/24 07:43:08;;;;;;;31.70;23.90;;;12.30;72.50;;;;;;4993846;28;20461;-75
2022/04/24 07:45:39;;;;;;;35.60;25.47;;;12.30;72.70;;;;;;4993838;28;20536;-75
2022/04/24 07:48:08;;;;;;;36.33;24.33;;;12.30;72.80;;;;;;4994149;28;20487;-77
2022/04/24 07:50:38;;;;;;;35.17;25.97;;;12.30;73.10;;;;;;5012084;28;20877;-75
2022/04/24 07:53:07;;;;;;;32.10;24.20;;;12.30;73.10;;;;;;4994873;28;20467;-77
2022/04/24 07:55:35;;;;;;;30.27;21.37;;;12.30;73.10;;;;;;4998795;28;20489;-76
2022/04/24 07:58:04;;;;;;;29.50;22.47;;;12.30;73.20;;;;;;4996687;28;20453;-75
2022/04/24 08:00:34;;;;;;;29.70;22.57;;;12.30;73.30;;;;;;4998650;28;20483;-77
2022/04/24 08:03:05;;;;;;;30.23;22.37;;;12.30;73.40;;;;;;5002799;28;20460;-75
2022/04/24 08:05:36;;;;;;;29.97;24.30;;;12.30;73.60;;;;;;4999572;28;20481;-76
2022/04/24 08:08:05;;;;;;;34.93;26.50;;;12.30;73.70;;;;;;4996095;28;20468;-76
2022/04/24 08:10:35;;;;;;;33.80;25.50;;;12.30;73.80;;;;;;4995415;28;20458;-76
2022/04/24 08:13:05;;;;;;;32.00;24.00;;;12.30;73.90;;;;;;4992029;28;20464;-77
2022/04/24 08:15:39;;;;;;;30.50;23.90;;;12.30;73.90;;;;;;4996802;28;20480;-75
2022/04/24 08:18:09;;;;;;;35.63;24.17;;;12.30;74.10;;;;;;4994936;28;20567;-75
2022/04/24 08:20:38;;;;;;;32.07;25.17;;;12.30;74.10;;;;;;4999249;28;21328;-75
2022/04/24 08:23:07;;;;;;;33.43;25.47;;;12.30;74.20;;;;;;5001145;28;20472;-76
2022/04/24 08:25:36;;;;;;;36.00;27.57;;;12.30;74.40;;;;;;4994896;28;20503;-75
2022/04/24 08:28:06;;;;;;;36.57;27.20;;;12.30;74.50;;;;;;5000474;28;20777;-75
2022/04/24 08:30:36;;;;;;;30.87;25.33;;;12.30;74.60;;;;;;5002493;28;20475;-75
2022/04/24 08:33:05;;;;;;;31.37;24.53;;;12.40;74.70;;;;;;5004272;28;20472;-75
2022/04/24 08:35:34;;;;;;;31.07;24.37;;;12.40;74.80;;;;;;5000471;28;20495;-76
2022/04/24 08:38:03;;;;;;;31.03;23.30;;;12.40;74.90;;;;;;4995313;28;21304;-75
2022/04/24 08:40:31;;;;;;;35.50;25.00;;;12.50;75.00;;;;;;5000633;28;20473;-75
2022/04/24 08:43:00;;;;;;;34.00;25.30;;;12.50;75.10;;;;;;4995664;28;20475;-75
2022/04/24 08:45:30;;;;;;;27.57;20.83;;;12.60;75.20;;;;;;4994664;28;20481;-75
2022/04/24 08:47:59;;;;;;;28.13;21.27;;;12.60;75.20;;;;;;5005484;28;21008;-76
2022/04/24 08:50:28;;;;;;;28.40;20.73;;;12.60;75.10;;;;;;5004501;28;20464;-75
2022/04/24 08:52:58;;;;;;;36.33;26.60;;;12.60;75.10;;;;;;5000991;28;20468;-75
2022/04/24 08:55:27;;;;;;;28.60;22.97;;;12.60;75.10;;;;;;5008490;28;21050;-75
2022/04/24 08:57:56;;;;;;;32.43;23.33;;;12.60;75.10;;;;;;4999225;28;20532;-75
2022/04/24 09:00:25;;;;;;;36.37;26.47;;;12.60;75.20;;;;;;4998597;28;20479;-75
2022/04/24 09:02:53;;;;;;;41.80;31.30;;;12.60;75.30;;;;;;4999527;28;20481;-75
2022/04/24 09:05:22;;;;;;;37.07;25.03;;;12.60;75.50;;;;;;5005230;28;20492;-75
2022/04/24 09:07:52;;;;;;;30.90;23.00;;;12.70;75.60;;;;;;5000858;28;20449;-75
2022/04/24 09:10:53;;;;;;;28.90;21.97;;;12.70;75.60;;;;;;5008409;28;20478;-75
2022/04/24 09:13:28;;;;;;;27.60;22.50;;;12.70;75.60;;;;;;5005055;28;20452;-75
2022/04/24 09:15:57;;;;;;;34.37;25.57;;;12.80;75.60;;;;;;4999569;28;20477;-77
2022/04/24 09:18:38;;;;;;;37.07;24.30;;;12.80;75.60;;;;;;4998144;28;20468;-75
2022/04/24 09:21:05;;;;;;;34.60;25.80;;;12.80;75.50;;;;;;4997824;28;20480;-75
2022/04/24 09:23:37;;;;;;;33.20;25.47;;;12.70;75.60;;;;;;5001004;28;20489;-75
2022/04/24 09:26:06;;;;;;;35.60;26.17;;;12.60;75.60;;;;;;5001760;28;20488;-74
2022/04/24 09:28:39;;;;;;;37.80;27.23;;;12.50;75.80;;;;;;4997799;28;20462;-75
2022/04/24 09:31:08;;;;;;;31.37;23.23;;;12.50;76.00;;;;;;4995297;28;20579;-75
2022/04/24 09:33:37;;;;;;;30.30;23.37;;;12.40;76.10;;;;;;4999168;28;20496;-74
2022/04/24 09:36:06;;;;;;;31.33;23.87;;;12.40;76.30;;;;;;5003121;28;20491;-74
2022/04/24 09:38:40;;;;;;;34.23;24.23;;;12.30;76.40;;;;;;5001878;28;20480;-74
2022/04/24 09:41:21;;;;;;;31.67;23.73;;;12.20;76.90;;;;;;4999919;28;21405;-74
2022/04/24 09:43:50;;;;;;;33.13;24.83;;;12.20;76.90;;;;;;4998781;28;20467;-74
2022/04/24 09:46:26;;;;;;;35.20;24.83;;;12.20;77.00;;;;;;4997823;28;20503;-75
2022/04/24 09:48:57;;;;;;;34.27;25.53;;;12.20;77.50;;;;;;4997435;28;20966;-75
2022/04/24 09:51:26;;;;;;;35.53;25.77;;;12.10;78.30;;;;;;4998984;28;20524;-74
2022/04/24 09:53:59;;;;;;;35.20;25.23;;;12.10;78.10;;;;;;4998180;28;21060;-74
2022/04/24 09:56:29;;;;;;;35.07;25.37;;;12.20;77.90;;;;;;4995421;28;20492;-74
2022/04/24 09:58:57;;;;;;;32.07;25.87;;;12.20;77.90;;;;;;4995307;28;20465;-75
2022/04/24 10:01:26;;;;;;;32.17;24.20;;;12.20;78.10;;;;;;4997152;28;21114;-75
2022/04/24 10:03:56;;;;;;;32.07;24.67;;;12.30;78.40;;;;;;4998478;28;20471;-74
2022/04/24 10:06:24;;;;;;;34.73;22.27;;;12.30;78.30;;;;;;4995898;28;20586;-74
2022/04/24 10:08:52;;;;;;;31.33;22.13;;;12.40;78.50;;;;;;4996328;28;20466;-74
2022/04/24 10:11:21;;;;;;;28.70;22.07;;;12.40;78.50;;;;;;4997081;28;22536;-74
2022/04/24 10:13:54;;;;;;;30.97;23.57;;;12.40;78.40;;;;;;5000524;28;20468;-74
2022/04/24 10:16:45;;;;;;;29.47;22.87;;;12.40;78.50;;;;;;4997337;28;20488;-74
2022/04/24 10:19:23;;;;;;;31.63;23.37;;;12.60;79.00;;;;;;4996362;28;20469;-74
2022/04/24 10:22:03;;;;;;;32.30;24.90;;;12.70;78.80;;;;;;4994167;28;20977;-75
2022/04/24 10:24:40;;;;;;;25.60;19.00;;;12.80;78.90;;;;;;4999047;28;20468;-74
2022/04/24 10:27:11;;;;;;;27.67;20.50;;;12.90;78.70;;;;;;4989090;28;20480;-74
2022/04/24 10:29:51;;;;;;;29.83;22.97;;;13.00;78.50;;;;;;4991977;28;20469;-74
2022/04/24 10:32:27;;;;;;;25.83;20.90;;;13.00;78.50;;;;;;4988458;28;20880;-74
2022/04/24 10:34:55;;;;;;;32.00;24.37;;;13.10;78.50;;;;;;4993879;28;20494;-74
2022/04/24 10:37:27;;;;;;;30.50;24.17;;;13.20;78.50;;;;;;4996244;28;20469;-74
2022/04/24 10:39:57;;;;;;;27.57;21.57;;;13.20;78.50;;;;;;4992001;28;20453;-74
2022/04/24 10:42:33;;;;;;;30.43;21.60;;;13.40;78.70;;;;;;4998190;28;20484;-74
2022/04/24 10:45:08;;;;;;;28.10;22.17;;;13.40;78.40;;;;;;5000353;28;20572;-74
2022/04/24 10:47:45;;;;;;;26.83;21.00;;;13.40;78.40;;;;;;5000379;28;20475;-74
2022/04/24 10:50:14;;;;;;;26.77;21.43;;;13.50;78.50;;;;;;4998348;28;21069;-74
2022/04/24 10:52:43;;;;;;;31.27;21.63;;;13.40;78.30;;;;;;4998674;28;20461;-74
2022/04/24 10:55:14;;;;;;;33.50;24.20;;;13.40;78.00;;;;;;4994860;28;21089;-74
2022/04/24 10:57:43;;;;;;;33.10;24.67;;;13.30;78.10;;;;;;4996875;28;20501;-74
2022/04/24 11:00:22;;;;;;;29.27;22.13;;;13.30;78.30;;;;;;4996416;28;20507;-75
2022/04/24 11:02:52;;;;;;;31.13;23.53;;;13.40;78.20;;;;;;4997220;28;20463;-74
2022/04/24 11:05:22;;;;;;;28.53;22.67;;;13.30;78.00;;;;;;4998654;28;21012;-74
2022/04/24 11:08:02;;;;;;;26.90;21.50;;;13.40;78.20;;;;;;4995677;28;20472;-74
2022/04/24 11:10:30;;;;;;;24.70;20.53;;;13.40;77.90;;;;;;4994615;28;20479;-74
2022/04/24 11:12:58;;;;;;;26.20;19.77;;;13.40;77.90;;;;;;4991974;28;20454;-75
2022/04/24 11:15:29;;;;;;;25.80;19.97;;;13.50;78.20;;;;;;4999694;28;20473;-75
2022/04/24 11:17:57;;;;;;;23.73;17.70;;;13.60;78.00;;;;;;5005360;28;21054;-75
2022/04/24 11:20:29;;;;;;;21.93;16.77;;;13.70;77.80;;;;;;4996364;28;20798;-75
2022/04/24 11:22:58;;;;;;;19.63;15.93;;;13.70;77.50;;;;;;4997250;28;20596;-76
2022/04/24 11:25:27;;;;;;;20.67;15.67;;;13.80;77.50;;;;;;4996940;28;20481;-74
2022/04/24 11:27:57;;;;;;;23.53;16.13;;;13.80;77.40;;;;;;5000318;28;21380;-76
2022/04/24 11:30:31;;;;;;;17.70;13.77;;;13.80;77.20;;;;;;4997852;28;20460;-75
2022/04/24 11:33:05;;;;;;;19.40;14.07;;;13.80;77.00;;;;;;4994126;28;20453;-74
2022/04/24 11:35:35;;;;;;;16.97;13.30;;;13.80;76.80;;;;;;4999454;28;20512;-75
2022/04/24 11:38:04;;;;;;;16.30;12.77;;;13.80;76.10;;;;;;4998428;28;20452;-74
2022/04/24 11:40:35;;;;;;;18.07;13.53;;;13.80;76.30;;;;;;4996101;28;20986;-75
2022/04/24 11:43:19;;;;;;;18.70;14.50;;;13.70;76.20;;;;;;4996827;28;20477;-75
2022/04/24 11:51:33;;;;;;;19.67;14.60;;;13.60;75.90;;;;;;4995693;28;20503;-75
2022/04/24 11:54:08;;;;;;;24.10;15.50;;;13.50;75.90;;;;;;4996993;28;20565;-75
2022/04/24 11:56:37;;;;;;;23.57;17.90;;;13.50;76.00;;;;;;5001110;28;20489;-75
2022/04/24 11:59:15;;;;;;;21.97;16.07;;;13.50;76.10;;;;;;4996218;28;20957;-75
2022/04/24 12:01:55;;;;;;;19.73;14.97;;;13.60;76.00;;;;;;5003136;28;20481;-75
2022/04/24 12:04:28;;;;;;;20.53;14.20;;;13.60;75.90;;;;;;4998483;28;20486;-75
2022/04/24 12:07:04;;;;;;;20.53;16.07;;;13.60;75.90;;;;;;4996231;28;20449;-75
2022/04/24 12:09:32;;;;;;;24.37;16.97;;;13.60;75.90;;;;;;4991752;28;20973;-75
2022/04/24 12:12:06;;;;;;;40.10;27.00;;;13.60;75.90;;;;;;4993984;28;20512;-75
2022/04/24 12:14:35;;;;;;;40.20;24.57;;;13.60;75.90;;;;;;5001893;28;20512;-75
2022/04/24 12:17:07;;;;;;;28.60;19.83;;;13.70;75.80;;;;;;4998112;28;20487;-75
2022/04/24 12:19:35;;;;;;;27.57;20.07;;;13.70;75.90;;;;;;5001564;28;20455;-75
2022/04/24 12:22:08;;;;;;;33.37;23.70;;;13.70;75.80;;;;;;4999703;28;20491;-75
2022/04/24 12:24:44;;;;;;;25.20;18.73;;;13.70;75.60;;;;;;4995491;28;20853;-75
2022/04/24 12:27:14;;;;;;;26.20;18.07;;;13.70;75.70;;;;;;4996051;28;20460;-75
2022/04/24 12:29:44;;;;;;;33.03;22.90;;;13.70;75.70;;;;;;4998227;28;20453;-75
2022/04/24 12:32:17;;;;;;;23.37;17.10;;;13.70;75.80;;;;;;5005648;28;20879;-74
2022/04/24 12:34:47;;;;;;;25.80;18.40;;;13.70;75.90;;;;;;5007783;28;20511;-74
2022/04/24 12:37:27;;;;;;;46.20;30.77;;;13.80;75.80;;;;;;5009554;28;20493;-74
2022/04/24 12:39:55;;;;;;;32.60;20.10;;;13.80;75.70;;;;;;5006820;28;20455;-75
2022/04/24 12:42:25;;;;;;;25.97;19.07;;;13.80;75.40;;;;;;5002799;28;20495;-75
2022/04/24 12:44:54;;;;;;;16.23;13.13;;;13.80;75.40;;;;;;5000389;28;20484;-75
2022/04/24 12:47:25;;;;;;;18.23;13.93;;;13.80;75.30;;;;;;5002912;28;20587;-75
2022/04/24 12:49:52;;;;;;;23.27;16.43;;;13.80;75.40;;;;;;5000667;28;20542;-75
2022/04/24 12:52:21;;;;;;;26.27;16.80;;;13.80;75.40;;;;;;4998900;28;20457;-75